New River Marine Corps Air S, North Carolina
Current Conditions -  °F | °C
As of 10:56 AM on Wednesday 22 Oct 2014 (Local Time) from KNCA Reporting Station
Clear Clear  
Wind Chill: 60°   Ceiling: Unl
Heat Index: 60°   Visibility: 10mi
Dew Point: 44°   Wind: 15mph
Humidity: 55%   Direction: 330°NNW
Pressure: 29.95"   Gusts: NA
Location:  34.6773°N, 77.5232°W
Report Text: KNCA 221456Z AUTO 33013KT 10SM CLR 16/07 A2995 RMK AO2 SLP145 T01560067 50007
Loading
Personal Weather Stations






























Interactive Weather Map
Tropical Storm Tracking
New forecast layout! Learn more

10-Day Weather Forecast

Advertisements
Track Severe Weather on mobile